AWE1224 KPWM-KJAX
Flight info
| Callsign | AWE1224 |
|---|---|
| Flight time | N/A |
| Altitude | 34000 |
| Route | CCC Q97 SAWED GUILD Q409 SESUE ESENT LUNNI1 |
| Aircraft | A321/M-SDE3FGHIRWY/LB1 |
Departure
| Time | 2026-05-06 19:16 |
|---|---|
| Airport | Portland International Jetport (KPWM) |
Arrival
| Time | N/A |
|---|---|
| Airport | Jacksonville International Airport (KJAX) |
| Time | Latitude | Longitude | Altitude | Speed | Heading |
|---|---|---|---|---|---|
| 2026-05-06 18:55 | 43.64657 | -70.30896 | 59 ft | 0 kts | 353° |
| 2026-05-06 19:04 | 43.64658 | -70.30896 | 59 ft | 0 kts | 353° |
| 2026-05-06 19:04 | 43.64648 | -70.30894 | 59 ft | 2 kts | 353° |
| 2026-05-06 19:04 | 43.64633 | -70.30891 | 59 ft | 2 kts | 353° |
| 2026-05-06 19:05 | 43.64617 | -70.30888 | 59 ft | 2 kts | 353° |
| 2026-05-06 19:05 | 43.64605 | -70.30886 | 59 ft | 0 kts | 353° |
| 2026-05-06 19:05 | 43.64595 | -70.30884 | 59 ft | 1 kts | 338° |
| 2026-05-06 19:05 | 43.64584 | -70.30875 | 58 ft | 1 kts | 307° |
| 2026-05-06 19:06 | 43.64579 | -70.30859 | 58 ft | 1 kts | 281° |
| 2026-05-06 19:06 | 43.64578 | -70.30852 | 58 ft | 1 kts | 274° |
| 2026-05-06 19:06 | 43.64578 | -70.30846 | 58 ft | 0 kts | 275° |
| 2026-05-06 19:11 | 43.64581 | -70.30893 | 59 ft | 9 kts | 273° |
| 2026-05-06 19:11 | 43.64586 | -70.31000 | 61 ft | 13 kts | 274° |
| 2026-05-06 19:11 | 43.64592 | -70.31140 | 64 ft | 15 kts | 278° |
| 2026-05-06 19:12 | 43.64603 | -70.31298 | 67 ft | 15 kts | 253° |
| 2026-05-06 19:12 | 43.64597 | -70.31316 | 67 ft | 1 kts | 239° |
| 2026-05-06 19:12 | 43.64592 | -70.31325 | 67 ft | 1 kts | 233° |
| 2026-05-06 19:12 | 43.64591 | -70.31326 | 67 ft | 0 kts | 229° |
| 2026-05-06 19:13 | 43.64548 | -70.31370 | 68 ft | 12 kts | 214° |
| 2026-05-06 19:13 | 43.64512 | -70.31507 | 68 ft | 25 kts | 271° |
| 2026-05-06 19:13 | 43.64529 | -70.31760 | 68 ft | 26 kts | 272° |
| 2026-05-06 19:13 | 43.64546 | -70.32004 | 67 ft | 25 kts | 277° |
| 2026-05-06 19:14 | 43.64561 | -70.32247 | 67 ft | 25 kts | 273° |
| 2026-05-06 19:14 | 43.64573 | -70.32444 | 67 ft | 16 kts | 287° |
| 2026-05-06 19:14 | 43.64661 | -70.32507 | 67 ft | 14 kts | 323° |
| 2026-05-06 19:14 | 43.64672 | -70.32550 | 66 ft | 1 kts | 239° |
| 2026-05-06 19:15 | 43.64655 | -70.32572 | 66 ft | 5 kts | 204° |
| 2026-05-06 19:15 | 43.64611 | -70.32568 | 65 ft | 8 kts | 129° |
| 2026-05-06 19:15 | 43.64581 | -70.32217 | 68 ft | 80 kts | 95° |
| 2026-05-06 19:15 | 43.64464 | -70.31073 | 98 ft | 152 kts | 104° |
| 2026-05-06 19:16 | 43.64376 | -70.29602 | 748 ft | 157 kts | 107° |
| 2026-05-06 19:16 | 43.64180 | -70.28018 | 1161 ft | 185 kts | 109° |
| 2026-05-06 19:16 | 43.64283 | -70.26012 | 1374 ft | 240 kts | 78° |
| 2026-05-06 19:16 | 43.65180 | -70.23802 | 1467 ft | 290 kts | 57° |
| 2026-05-06 19:17 | 43.66478 | -70.21392 | 1710 ft | 335 kts | 62° |
| 2026-05-06 19:17 | 43.67189 | -70.18384 | 1939 ft | 312 kts | 94° |
| 2026-05-06 19:17 | 43.66859 | -70.15688 | 2263 ft | 265 kts | 119° |
| 2026-05-06 19:17 | 43.66169 | -70.13437 | 2665 ft | 259 kts | 124° |
| 2026-05-06 19:18 | 43.65093 | -70.11420 | 3062 ft | 266 kts | 148° |
| 2026-05-06 19:18 | 43.63422 | -70.10360 | 3476 ft | 272 kts | 175° |
| 2026-05-06 19:18 | 43.61499 | -70.10478 | 3902 ft | 281 kts | 192° |
| 2026-05-06 19:18 | 43.59547 | -70.10838 | 4289 ft | 273 kts | 190° |
| 2026-05-06 19:19 | 43.57847 | -70.11378 | 4662 ft | 237 kts | 206° |
| 2026-05-06 19:19 | 43.56541 | -70.12589 | 5061 ft | 227 kts | 223° |
| 2026-05-06 19:19 | 43.55473 | -70.14211 | 5467 ft | 228 kts | 227° |
| 2026-05-06 19:19 | 43.54428 | -70.15859 | 5869 ft | 229 kts | 227° |
| 2026-05-06 19:20 | 43.53393 | -70.17496 | 6268 ft | 230 kts | 227° |
| 2026-05-06 19:20 | 43.52341 | -70.19166 | 6673 ft | 230 kts | 227° |
| 2026-05-06 19:20 | 43.51296 | -70.20824 | 7070 ft | 231 kts | 228° |
| 2026-05-06 19:20 | 43.50235 | -70.22510 | 7467 ft | 233 kts | 227° |
| 2026-05-06 19:21 | 43.49170 | -70.24199 | 7868 ft | 234 kts | 228° |
| 2026-05-06 19:21 | 43.48116 | -70.25880 | 8330 ft | 234 kts | 227° |
| 2026-05-06 19:21 | 43.47053 | -70.27570 | 8821 ft | 236 kts | 227° |
| 2026-05-06 19:21 | 43.45972 | -70.29285 | 9322 ft | 237 kts | 227° |
| 2026-05-06 19:22 | 43.44896 | -70.30988 | 9807 ft | 239 kts | 228° |
| 2026-05-06 19:22 | 43.43805 | -70.32717 | 10309 ft | 240 kts | 228° |
| 2026-05-06 19:22 | 43.42713 | -70.34444 | 10801 ft | 242 kts | 228° |
| 2026-05-06 19:22 | 43.41587 | -70.36227 | 11289 ft | 251 kts | 228° |
| 2026-05-06 19:23 | 43.40428 | -70.38053 | 11776 ft | 260 kts | 229° |
| 2026-05-06 19:23 | 43.39235 | -70.39938 | 12340 ft | 266 kts | 229° |
| 2026-05-06 19:23 | 43.37998 | -70.41887 | 12927 ft | 271 kts | 229° |
| 2026-05-06 19:23 | 43.36766 | -70.43832 | 13492 ft | 276 kts | 230° |
| 2026-05-06 19:24 | 43.35493 | -70.45841 | 14080 ft | 280 kts | 229° |
| 2026-05-06 19:24 | 43.34220 | -70.47845 | 14631 ft | 283 kts | 230° |
| 2026-05-06 19:24 | 43.32913 | -70.49905 | 15229 ft | 286 kts | 230° |
| 2026-05-06 19:24 | 43.31616 | -70.51942 | 15774 ft | 288 kts | 230° |
| 2026-05-06 19:25 | 43.30290 | -70.54024 | 16348 ft | 290 kts | 230° |
| 2026-05-06 19:25 | 43.28953 | -70.56126 | 16941 ft | 292 kts | 230° |
| 2026-05-06 19:25 | 43.27613 | -70.58195 | 17493 ft | 293 kts | 229° |
| 2026-05-06 19:25 | 43.26158 | -70.60136 | 18059 ft | 295 kts | 224° |
| 2026-05-06 19:26 | 43.24628 | -70.61985 | 18608 ft | 295 kts | 224° |
| 2026-05-06 19:26 | 43.23090 | -70.63837 | 19193 ft | 295 kts | 224° |
| 2026-05-06 19:26 | 43.21565 | -70.65672 | 19778 ft | 294 kts | 224° |
| 2026-05-06 19:26 | 43.20023 | -70.67534 | 20373 ft | 293 kts | 224° |
| 2026-05-06 19:27 | 43.18514 | -70.69354 | 20959 ft | 292 kts | 223° |
| 2026-05-06 19:27 | 43.16942 | -70.71099 | 21529 ft | 292 kts | 218° |
| 2026-05-06 19:27 | 43.15234 | -70.72581 | 22092 ft | 293 kts | 213° |
| 2026-05-06 19:27 | 43.13445 | -70.73896 | 22661 ft | 292 kts | 212° |
| 2026-05-06 19:28 | 43.11668 | -70.75180 | 23228 ft | 289 kts | 212° |
| 2026-05-06 19:28 | 43.09887 | -70.76463 | 23817 ft | 286 kts | 212° |
| 2026-05-06 19:28 | 43.08138 | -70.77719 | 24326 ft | 286 kts | 212° |
| 2026-05-06 19:28 | 43.06394 | -70.78972 | 24746 ft | 288 kts | 212° |
| 2026-05-06 19:29 | 43.04614 | -70.80252 | 25187 ft | 289 kts | 212° |
| 2026-05-06 19:29 | 43.02844 | -70.81519 | 25567 ft | 291 kts | 212° |
| 2026-05-06 19:29 | 43.01053 | -70.82802 | 25980 ft | 292 kts | 212° |
| 2026-05-06 19:29 | 42.99225 | -70.84110 | 26337 ft | 295 kts | 212° |
| 2026-05-06 19:30 | 42.97414 | -70.85405 | 26678 ft | 298 kts | 212° |
| 2026-05-06 19:30 | 42.95573 | -70.86713 | 27074 ft | 299 kts | 212° |
| 2026-05-06 19:30 | 42.93720 | -70.88039 | 27401 ft | 302 kts | 213° |
| 2026-05-06 19:30 | 42.91878 | -70.89352 | 27782 ft | 303 kts | 212° |
| 2026-05-06 19:31 | 42.90008 | -70.90686 | 28130 ft | 305 kts | 213° |
| 2026-05-06 19:31 | 42.88108 | -70.92031 | 28479 ft | 307 kts | 213° |
| 2026-05-06 19:31 | 42.84269 | -70.94727 | 29134 ft | 314 kts | 211° |
| 2026-05-06 19:32 | 42.82274 | -70.95909 | 29475 ft | 318 kts | 207° |
| 2026-05-06 19:32 | 42.80180 | -70.96945 | 29816 ft | 322 kts | 207° |
| 2026-05-06 19:32 | 42.78074 | -70.97977 | 30095 ft | 325 kts | 207° |
| 2026-05-06 19:32 | 42.75952 | -70.99017 | 30445 ft | 326 kts | 207° |
| 2026-05-06 19:33 | 42.73812 | -71.00063 | 30765 ft | 328 kts | 207° |
| 2026-05-06 19:33 | 42.71642 | -71.01119 | 31060 ft | 331 kts | 207° |
| 2026-05-06 19:33 | 42.69480 | -71.02176 | 31416 ft | 331 kts | 207° |
| 2026-05-06 19:33 | 42.67308 | -71.03233 | 31667 ft | 335 kts | 208° |
| 2026-05-06 19:34 | 42.65122 | -71.04296 | 31952 ft | 337 kts | 208° |
| 2026-05-06 19:34 | 42.62900 | -71.05379 | 32239 ft | 339 kts | 208° |
| 2026-05-06 19:34 | 42.60684 | -71.06454 | 32535 ft | 341 kts | 208° |
| 2026-05-06 19:34 | 42.58467 | -71.07530 | 32838 ft | 342 kts | 208° |
| 2026-05-06 19:35 | 42.56232 | -71.08615 | 33113 ft | 344 kts | 208° |
| 2026-05-06 19:35 | 42.53954 | -71.09720 | 33355 ft | 346 kts | 208° |
| 2026-05-06 19:35 | 42.51685 | -71.10819 | 33615 ft | 348 kts | 208° |
| 2026-05-06 19:35 | 42.49397 | -71.11923 | 33867 ft | 351 kts | 208° |
| 2026-05-06 19:36 | 42.47104 | -71.13030 | 34159 ft | 352 kts | 208° |
| 2026-05-06 19:36 | 42.44774 | -71.14153 | 34407 ft | 353 kts | 208° |
| 2026-05-06 19:36 | 42.42557 | -71.15396 | 34859 ft | 344 kts | 215° |
| 2026-05-06 19:36 | 42.40496 | -71.16966 | 35023 ft | 341 kts | 221° |
| 2026-05-06 19:37 | 42.38559 | -71.18809 | 35239 ft | 341 kts | 224° |
| 2026-05-06 19:37 | 42.36621 | -71.20725 | 35434 ft | 343 kts | 223° |
| 2026-05-06 19:37 | 42.34712 | -71.22617 | 35646 ft | 344 kts | 224° |
| 2026-05-06 19:37 | 42.33421 | -71.23897 | 35785 ft | 346 kts | 224° |
| 2026-05-06 19:38 | 42.28813 | -71.28466 | 35820 ft | 359 kts | 224° |
| 2026-05-06 19:38 | 42.24737 | -71.32502 | 35827 ft | 371 kts | 224° |
| 2026-05-06 19:39 | 42.20503 | -71.36688 | 35826 ft | 382 kts | 224° |
| 2026-05-06 19:39 | 42.16170 | -71.40959 | 35826 ft | 390 kts | 224° |
| 2026-05-06 19:40 | 42.11789 | -71.45266 | 35830 ft | 391 kts | 224° |
| 2026-05-06 19:40 | 42.07383 | -71.49593 | 35834 ft | 391 kts | 224° |
| 2026-05-06 19:41 | 42.02974 | -71.53916 | 35835 ft | 393 kts | 224° |
| 2026-05-06 19:41 | 41.98566 | -71.58233 | 35844 ft | 393 kts | 224° |
| 2026-05-06 19:42 | 41.94150 | -71.62552 | 35839 ft | 390 kts | 225° |
| 2026-05-06 19:42 | 41.89743 | -71.66857 | 35843 ft | 392 kts | 224° |
| 2026-05-06 19:43 | 41.85342 | -71.71137 | 35843 ft | 392 kts | 224° |
| 2026-05-06 19:43 | 41.80942 | -71.75418 | 35840 ft | 391 kts | 224° |
| 2026-05-06 19:44 | 41.76523 | -71.79705 | 35838 ft | 392 kts | 224° |
| 2026-05-06 19:44 | 41.72124 | -71.83967 | 35833 ft | 391 kts | 225° |
| 2026-05-06 19:45 | 41.67741 | -71.88216 | 35837 ft | 391 kts | 224° |
| 2026-05-06 19:45 | 41.63329 | -71.92480 | 35826 ft | 390 kts | 225° |
| 2026-05-06 19:46 | 41.58918 | -71.96738 | 35831 ft | 390 kts | 225° |
| 2026-05-06 19:46 | 41.54722 | -72.01177 | 35832 ft | 382 kts | 230° |
| 2026-05-06 19:47 | 41.50877 | -72.06068 | 35833 ft | 380 kts | 231° |
| 2026-05-06 19:47 | 41.47050 | -72.10978 | 35823 ft | 382 kts | 232° |
| 2026-05-06 19:48 | 41.43239 | -72.15878 | 35835 ft | 382 kts | 232° |
| 2026-05-06 19:48 | 41.39430 | -72.20773 | 35833 ft | 381 kts | 232° |
| 2026-05-06 19:49 | 41.35607 | -72.25673 | 35836 ft | 382 kts | 232° |
| 2026-05-06 19:49 | 41.31789 | -72.30568 | 35832 ft | 382 kts | 232° |
| 2026-05-06 19:50 | 41.27971 | -72.35450 | 35838 ft | 380 kts | 232° |
| 2026-05-06 19:50 | 41.24161 | -72.40315 | 35843 ft | 381 kts | 232° |
| 2026-05-06 19:51 | 41.20330 | -72.45197 | 35840 ft | 382 kts | 232° |
| 2026-05-06 19:51 | 41.16492 | -72.50084 | 35841 ft | 382 kts | 232° |
| 2026-05-06 19:52 | 41.12666 | -72.54941 | 35839 ft | 382 kts | 232° |
| 2026-05-06 19:52 | 41.08843 | -72.59792 | 35845 ft | 380 kts | 232° |
| 2026-05-06 19:53 | 41.05006 | -72.64650 | 35836 ft | 382 kts | 232° |
| 2026-05-06 19:53 | 41.01167 | -72.69518 | 35849 ft | 383 kts | 232° |
| 2026-05-06 19:54 | 40.97327 | -72.74377 | 35842 ft | 383 kts | 232° |
| 2026-05-06 19:54 | 40.93397 | -72.79240 | 35826 ft | 386 kts | 230° |
| 2026-05-06 19:55 | 40.89130 | -72.83594 | 35835 ft | 392 kts | 226° |
| 2026-05-06 19:55 | 40.84663 | -72.87937 | 35837 ft | 398 kts | 226° |
| 2026-05-06 19:56 | 40.80177 | -72.92293 | 35836 ft | 401 kts | 226° |
| 2026-05-06 19:56 | 40.75682 | -72.96655 | 35831 ft | 401 kts | 226° |
| 2026-05-06 19:57 | 40.71160 | -73.01041 | 35832 ft | 402 kts | 226° |
| 2026-05-06 19:57 | 40.66699 | -73.05362 | 35834 ft | 400 kts | 226° |
| 2026-05-06 19:58 | 40.62235 | -73.09679 | 35835 ft | 398 kts | 226° |
| 2026-05-06 19:58 | 40.57764 | -73.13996 | 35833 ft | 399 kts | 226° |
| 2026-05-06 19:59 | 40.53258 | -73.18340 | 35836 ft | 400 kts | 226° |
| 2026-05-06 19:59 | 40.48804 | -73.22626 | 35831 ft | 397 kts | 227° |
| 2026-05-06 20:00 | 40.44317 | -73.26940 | 35835 ft | 400 kts | 227° |
| 2026-05-06 20:00 | 40.39822 | -73.31255 | 35835 ft | 400 kts | 227° |
| 2026-05-06 20:01 | 40.35322 | -73.35567 | 35840 ft | 398 kts | 226° |
| 2026-05-06 20:01 | 40.30842 | -73.39851 | 35832 ft | 398 kts | 227° |
| 2026-05-06 20:02 | 40.26366 | -73.44125 | 35831 ft | 397 kts | 227° |
| 2026-05-06 20:02 | 40.21886 | -73.48374 | 35833 ft | 397 kts | 227° |
| 2026-05-06 20:03 | 40.17381 | -73.52634 | 35834 ft | 397 kts | 227° |
| 2026-05-06 20:03 | 40.12882 | -73.56881 | 35839 ft | 398 kts | 227° |
| 2026-05-06 20:04 | 40.08414 | -73.61097 | 35835 ft | 397 kts | 227° |
| 2026-05-06 20:04 | 40.03939 | -73.65316 | 35841 ft | 396 kts | 227° |
| 2026-05-06 20:05 | 39.99460 | -73.69552 | 35842 ft | 399 kts | 226° |
| 2026-05-06 20:05 | 39.94947 | -73.73805 | 35847 ft | 396 kts | 226° |
| 2026-05-06 20:06 | 39.90504 | -73.78019 | 35843 ft | 396 kts | 226° |
| 2026-05-06 20:06 | 39.86011 | -73.82251 | 35842 ft | 397 kts | 226° |
| 2026-05-06 20:07 | 39.81517 | -73.86465 | 35848 ft | 398 kts | 227° |
| 2026-05-06 20:07 | 39.77041 | -73.90681 | 35849 ft | 400 kts | 226° |
| 2026-05-06 20:08 | 39.72565 | -73.94893 | 35847 ft | 396 kts | 226° |
| 2026-05-06 20:08 | 39.68109 | -73.99077 | 35847 ft | 396 kts | 226° |
| 2026-05-06 20:09 | 39.63591 | -74.03320 | 35841 ft | 397 kts | 226° |
| 2026-05-06 20:09 | 39.59084 | -74.07544 | 35848 ft | 399 kts | 226° |
| 2026-05-06 20:10 | 39.54610 | -74.11726 | 35846 ft | 396 kts | 226° |
| 2026-05-06 20:10 | 39.50098 | -74.15912 | 35850 ft | 398 kts | 225° |
| 2026-05-06 20:11 | 39.45551 | -74.20071 | 35852 ft | 401 kts | 226° |
| 2026-05-06 20:11 | 39.41008 | -74.24224 | 35851 ft | 401 kts | 226° |
| 2026-05-06 20:12 | 39.36460 | -74.28383 | 35852 ft | 400 kts | 225° |
| 2026-05-06 20:12 | 39.31934 | -74.32507 | 35854 ft | 399 kts | 225° |
| 2026-05-06 20:13 | 39.27345 | -74.36682 | 35851 ft | 400 kts | 226° |
| 2026-05-06 20:13 | 39.22793 | -74.40826 | 35857 ft | 400 kts | 226° |
| 2026-05-06 20:14 | 39.18232 | -74.44968 | 35855 ft | 400 kts | 225° |
| 2026-05-06 20:14 | 39.13687 | -74.49086 | 35858 ft | 399 kts | 225° |
| 2026-05-06 20:15 | 39.09106 | -74.53229 | 35859 ft | 401 kts | 225° |
| 2026-05-06 20:15 | 39.04575 | -74.57316 | 35860 ft | 399 kts | 225° |
| 2026-05-06 20:16 | 39.00038 | -74.61412 | 35857 ft | 401 kts | 225° |
| 2026-05-06 20:16 | 38.95463 | -74.65536 | 35865 ft | 403 kts | 225° |
| 2026-05-06 20:17 | 38.91448 | -74.69167 | 35867 ft | 401 kts | 225° |
| 2026-05-06 20:17 | 38.86875 | -74.73272 | 35869 ft | 406 kts | 224° |
| 2026-05-06 20:18 | 38.82253 | -74.77394 | 35867 ft | 405 kts | 225° |
| 2026-05-06 20:18 | 38.77595 | -74.81554 | 35872 ft | 408 kts | 225° |
| 2026-05-06 20:19 | 38.72950 | -74.85703 | 35873 ft | 408 kts | 224° |
| 2026-05-06 20:19 | 38.68283 | -74.89864 | 35874 ft | 407 kts | 225° |
| 2026-05-06 20:20 | 38.63614 | -74.94023 | 35877 ft | 409 kts | 225° |
| 2026-05-06 20:20 | 38.58958 | -74.98171 | 35872 ft | 407 kts | 224° |
| 2026-05-06 20:21 | 38.54288 | -75.02312 | 35870 ft | 409 kts | 224° |
| 2026-05-06 20:21 | 38.49616 | -75.06445 | 35870 ft | 406 kts | 225° |
| 2026-05-06 20:22 | 38.44942 | -75.10588 | 35874 ft | 409 kts | 225° |
| 2026-05-06 20:22 | 38.40247 | -75.14740 | 35882 ft | 410 kts | 225° |
| 2026-05-06 20:23 | 38.35563 | -75.18875 | 35889 ft | 412 kts | 225° |
| 2026-05-06 20:23 | 38.30853 | -75.23026 | 35888 ft | 411 kts | 224° |
| 2026-05-06 20:24 | 38.26152 | -75.27152 | 35884 ft | 412 kts | 224° |
| 2026-05-06 20:24 | 38.21346 | -75.31199 | 35887 ft | 417 kts | 223° |
| 2026-05-06 20:25 | 38.16441 | -75.35174 | 35882 ft | 417 kts | 222° |
| 2026-05-06 20:25 | 38.11536 | -75.39162 | 35889 ft | 420 kts | 223° |
| 2026-05-06 20:26 | 38.06619 | -75.43162 | 35891 ft | 419 kts | 223° |
| 2026-05-06 20:26 | 38.01755 | -75.47272 | 35895 ft | 416 kts | 224° |
| 2026-05-06 20:27 | 37.96984 | -75.51465 | 35895 ft | 416 kts | 224° |
| 2026-05-06 20:27 | 37.92189 | -75.55665 | 35892 ft | 418 kts | 224° |
| 2026-05-06 20:28 | 37.87388 | -75.59834 | 35891 ft | 418 kts | 224° |
| 2026-05-06 20:28 | 37.82492 | -75.63853 | 35884 ft | 423 kts | 221° |
| 2026-05-06 20:29 | 37.77400 | -75.67702 | 35890 ft | 427 kts | 221° |
| 2026-05-06 20:29 | 37.72316 | -75.71555 | 35886 ft | 425 kts | 220° |
| 2026-05-06 20:30 | 37.64669 | -75.77305 | 35887 ft | 425 kts | 221° |
| 2026-05-06 20:31 | 37.59609 | -75.81100 | 35890 ft | 425 kts | 220° |
| 2026-05-06 20:31 | 37.54607 | -75.84998 | 35879 ft | 418 kts | 225° |
| 2026-05-06 20:32 | 37.50104 | -75.89584 | 35880 ft | 411 kts | 231° |
| 2026-05-06 20:32 | 37.45921 | -75.94427 | 35872 ft | 411 kts | 232° |
| 2026-05-06 20:33 | 37.41723 | -75.99306 | 35872 ft | 411 kts | 232° |
| 2026-05-06 20:33 | 37.37515 | -76.04201 | 35870 ft | 412 kts | 232° |
| 2026-05-06 20:34 | 37.33323 | -76.09058 | 35871 ft | 412 kts | 232° |
| 2026-05-06 20:34 | 37.29107 | -76.13943 | 35866 ft | 410 kts | 232° |
| 2026-05-06 20:35 | 37.24877 | -76.18832 | 35875 ft | 411 kts | 231° |
| 2026-05-06 20:35 | 37.20649 | -76.23704 | 35890 ft | 412 kts | 233° |
| 2026-05-06 20:36 | 37.16408 | -76.28593 | 35894 ft | 413 kts | 232° |
| 2026-05-06 20:36 | 37.12188 | -76.33450 | 35901 ft | 413 kts | 232° |
| 2026-05-06 20:37 | 37.07923 | -76.38348 | 35901 ft | 412 kts | 232° |
| 2026-05-06 20:37 | 37.03694 | -76.43203 | 35903 ft | 410 kts | 232° |
| 2026-05-06 20:38 | 36.99498 | -76.48010 | 35901 ft | 412 kts | 232° |
| 2026-05-06 20:38 | 36.95254 | -76.52859 | 35902 ft | 413 kts | 233° |
| 2026-05-06 20:39 | 36.91018 | -76.57691 | 35903 ft | 414 kts | 232° |
| 2026-05-06 20:39 | 36.86734 | -76.62559 | 35909 ft | 414 kts | 232° |
| 2026-05-06 20:40 | 36.82442 | -76.67408 | 35910 ft | 416 kts | 232° |
| 2026-05-06 20:40 | 36.78152 | -76.72299 | 35913 ft | 413 kts | 231° |
| 2026-05-06 20:41 | 36.73866 | -76.77164 | 35911 ft | 415 kts | 232° |
| 2026-05-06 20:41 | 36.69592 | -76.82008 | 35912 ft | 413 kts | 232° |
| 2026-05-06 20:42 | 36.67003 | -76.84937 | 35915 ft | 415 kts | 231° |
| 2026-05-06 20:42 | 36.63312 | -76.89108 | 35909 ft | 413 kts | 232° |
| 2026-05-06 20:43 | 36.59056 | -76.93913 | 35908 ft | 416 kts | 232° |
| 2026-05-06 20:43 | 36.54760 | -76.98751 | 35912 ft | 417 kts | 231° |
| 2026-05-06 20:44 | 36.50456 | -77.03590 | 35910 ft | 417 kts | 232° |
| 2026-05-06 20:44 | 36.46210 | -77.08363 | 35906 ft | 415 kts | 232° |
| 2026-05-06 20:45 | 36.41922 | -77.13170 | 35914 ft | 414 kts | 232° |
| 2026-05-06 20:45 | 36.37641 | -77.17963 | 35917 ft | 418 kts | 232° |
| 2026-05-06 20:46 | 36.33315 | -77.22807 | 35924 ft | 417 kts | 231° |
| 2026-05-06 20:46 | 36.28825 | -77.27445 | 35925 ft | 425 kts | 229° |
| 2026-05-06 20:47 | 36.24232 | -77.31922 | 35922 ft | 422 kts | 228° |
| 2026-05-06 20:47 | 36.19603 | -77.36428 | 35915 ft | 424 kts | 229° |
| 2026-05-06 20:48 | 36.14965 | -77.40943 | 35915 ft | 423 kts | 228° |
| 2026-05-06 20:48 | 36.10354 | -77.45414 | 35908 ft | 421 kts | 229° |
| 2026-05-06 20:49 | 36.05734 | -77.49891 | 35914 ft | 423 kts | 229° |
| 2026-05-06 20:49 | 36.01086 | -77.54385 | 35923 ft | 424 kts | 229° |
| 2026-05-06 20:50 | 35.96451 | -77.58868 | 35925 ft | 424 kts | 229° |
| 2026-05-06 20:50 | 35.91786 | -77.63366 | 35925 ft | 427 kts | 228° |
| 2026-05-06 20:51 | 35.87124 | -77.67847 | 35925 ft | 427 kts | 228° |
| 2026-05-06 20:51 | 35.82440 | -77.72346 | 35930 ft | 426 kts | 228° |
| 2026-05-06 20:52 | 35.77757 | -77.76839 | 35936 ft | 427 kts | 228° |
| 2026-05-06 20:52 | 35.73090 | -77.81303 | 35927 ft | 426 kts | 229° |
| 2026-05-06 20:53 | 35.68395 | -77.85802 | 35926 ft | 428 kts | 228° |
| 2026-05-06 20:53 | 35.63678 | -77.90311 | 35922 ft | 430 kts | 228° |
| 2026-05-06 20:54 | 35.58969 | -77.94801 | 35927 ft | 429 kts | 228° |
| 2026-05-06 20:54 | 35.54275 | -77.99274 | 35922 ft | 429 kts | 228° |
| 2026-05-06 20:55 | 35.49561 | -78.03760 | 35924 ft | 431 kts | 228° |
| 2026-05-06 20:55 | 35.44858 | -78.08227 | 35931 ft | 430 kts | 228° |
| 2026-05-06 20:56 | 35.40104 | -78.12735 | 35928 ft | 430 kts | 229° |
| 2026-05-06 20:56 | 35.35386 | -78.17207 | 35925 ft | 431 kts | 228° |
| 2026-05-06 20:57 | 35.30674 | -78.21660 | 35917 ft | 429 kts | 229° |
| 2026-05-06 20:57 | 35.25941 | -78.26128 | 35924 ft | 431 kts | 229° |
| 2026-05-06 20:58 | 35.21179 | -78.30611 | 35917 ft | 430 kts | 229° |
| 2026-05-06 20:58 | 35.16438 | -78.35076 | 35924 ft | 432 kts | 229° |
| 2026-05-06 20:59 | 35.11701 | -78.39530 | 35920 ft | 432 kts | 229° |
| 2026-05-06 20:59 | 35.06967 | -78.43971 | 35930 ft | 433 kts | 229° |
| 2026-05-06 21:00 | 35.02224 | -78.48415 | 35932 ft | 428 kts | 229° |
| 2026-05-06 21:00 | 34.97476 | -78.52860 | 35933 ft | 431 kts | 229° |
| 2026-05-06 21:01 | 34.92719 | -78.57306 | 35927 ft | 431 kts | 228° |
| 2026-05-06 21:01 | 34.87986 | -78.61710 | 35924 ft | 432 kts | 229° |
| 2026-05-06 21:02 | 34.83210 | -78.66129 | 35925 ft | 430 kts | 228° |
| 2026-05-06 21:02 | 34.78458 | -78.70561 | 35921 ft | 430 kts | 228° |
| 2026-05-06 21:03 | 34.73727 | -78.74956 | 35934 ft | 430 kts | 229° |
| 2026-05-06 21:03 | 34.68948 | -78.79394 | 35946 ft | 430 kts | 228° |
| 2026-05-06 21:04 | 34.64220 | -78.83769 | 35943 ft | 430 kts | 228° |
| 2026-05-06 21:04 | 34.59448 | -78.88190 | 35947 ft | 433 kts | 228° |
| 2026-05-06 21:05 | 34.54659 | -78.92615 | 35957 ft | 430 kts | 228° |
| 2026-05-06 21:05 | 34.49886 | -78.97015 | 35937 ft | 433 kts | 228° |
| 2026-05-06 21:06 | 34.45097 | -79.01413 | 35951 ft | 431 kts | 227° |
| 2026-05-06 21:06 | 34.40256 | -79.05711 | 35937 ft | 434 kts | 226° |
| 2026-05-06 21:07 | 34.35271 | -79.09955 | 35941 ft | 438 kts | 226° |
| 2026-05-06 21:07 | 34.30303 | -79.14187 | 35946 ft | 438 kts | 226° |
| 2026-05-06 21:08 | 34.25403 | -79.18492 | 35945 ft | 432 kts | 229° |
| 2026-05-06 21:08 | 34.20759 | -79.23053 | 35949 ft | 432 kts | 229° |
| 2026-05-06 21:09 | 34.16102 | -79.27639 | 35953 ft | 430 kts | 230° |
| 2026-05-06 21:09 | 34.11467 | -79.32201 | 35957 ft | 430 kts | 229° |
| 2026-05-06 21:10 | 34.06828 | -79.36761 | 35946 ft | 429 kts | 229° |
| 2026-05-06 21:10 | 34.02198 | -79.41306 | 35944 ft | 430 kts | 230° |
| 2026-05-06 21:11 | 33.97533 | -79.45875 | 35943 ft | 431 kts | 229° |
| 2026-05-06 21:11 | 33.92901 | -79.50407 | 35944 ft | 430 kts | 229° |
| 2026-05-06 21:12 | 33.88240 | -79.54945 | 35947 ft | 432 kts | 229° |
| 2026-05-06 21:12 | 33.83319 | -79.59154 | 35939 ft | 437 kts | 225° |
| 2026-05-06 21:13 | 33.79398 | -79.62316 | 35938 ft | 436 kts | 225° |
| 2026-05-06 21:13 | 33.74371 | -79.66377 | 35951 ft | 436 kts | 225° |
| 2026-05-06 21:14 | 33.69340 | -79.70463 | 35956 ft | 438 kts | 225° |
| 2026-05-06 21:14 | 33.64275 | -79.74565 | 35953 ft | 439 kts | 225° |
| 2026-05-06 21:15 | 33.59201 | -79.78655 | 35955 ft | 436 kts | 225° |
| 2026-05-06 21:15 | 33.54163 | -79.82708 | 35962 ft | 438 kts | 224° |
| 2026-05-06 21:16 | 33.49141 | -79.86736 | 35950 ft | 437 kts | 225° |
| 2026-05-06 21:16 | 33.44110 | -79.90775 | 35945 ft | 436 kts | 225° |